DW4212 La Cabrera ES current weather conditions

sailwx.info

Wind from 042 at 5 knots gusting 13

Air temperature 23.3° C
Dewpoint 2.2° C

Last reported at 2015-May-26 14:49 UTC.
Time now 2015-May-26 15:45 UTC

Location: N 40°53' W 003°35'.
View on Google Maps.

See reports from other nearby stations

  
Tides and Currents Weather Stations Pressure Air Temp Water Temp Dewpoint Dewpoint Depression Visibility Wind Speed Wind Dir Waves Ship Positions
date/time (UTC)wind fromknots sea level pressurealtimeterstation pressurevisibilityair tempwater tempwave heightnotes
2015-May-26 14:49 042 5 gusting 13 23.3
2015-May-26 14:39 073 2 gusting 10 23.9
2015-May-26 14:29 005 3 gusting 10 24.4
2015-May-26 14:19 017 3 gusting 6 24.4
2015-May-26 14:09 005 4 gusting 15 23.3
2015-May-26 13:59 355 2 gusting 8 23.9
2015-May-26 13:49 314 2 gusting 8 24.4
2015-May-26 13:39 017 2 gusting 8 24.4
2015-May-26 13:29 319 4 gusting 8 24.4
2015-May-26 13:19 355 3 gusting 8 23.3
2015-May-26 13:09 005 0 gusting 7 24.4
2015-May-26 12:59 323 0 gusting 6 24.4
2015-May-26 12:49 355 23.3
2015-May-26 12:39 315 0 gusting 6 23.9
2015-May-26 12:29 350 0 gusting 8 23.3
2015-May-26 12:19 012 3 gusting 6 22.8
2015-May-26 12:09 075 1 gusting 7 22.2
2015-May-26 11:59 033 0 gusting 5 21.7
2015-May-26 11:49 011 3 gusting 8 21.7
2015-May-26 11:39 005 1 gusting 8 21.1
2015-May-26 11:29 019 21.7
2015-May-26 11:19 355 1 gusting 9 20.6
2015-May-26 11:09 360 5 gusting 9 21.7
2015-May-26 10:59 057 0 gusting 6 20.6
2015-May-26 10:39 013 2 gusting 11 21.1
2015-May-26 10:29 069 2 gusting 7 20.0
2015-May-26 10:19 067 0 gusting 6 20.0
2015-May-26 10:09 349 3 gusting 6 20.0
2015-May-26 09:59 005 1 gusting 6 20.6
2015-May-26 09:49 005 1 gusting 6 20.0
2015-May-26 09:39 005 0 gusting 3 20.0
2015-May-26 09:29 360 20.0
2015-May-26 09:19 005 18.9
2015-May-26 09:09 005 0 gusting 5 18.3
2015-May-26 08:59 005 18.9
2015-May-26 08:49 360 18.9
2015-May-26 08:39 071 17.8
2015-May-26 08:29 073 0 gusting 3 17.8
2015-May-26 08:19 013 17.8
2015-May-26 08:09 005 2 gusting 5 17.2
2015-May-26 07:59 066 0 gusting 3 16.7
2015-May-26 07:49 011 2 gusting 5 16.1
2015-May-26 07:39 360 0 gusting 3 15.6
2015-May-26 07:29 024 2 gusting 5 15.6
2015-May-26 07:19 015 0 gusting 4 15.0
2015-May-26 07:09 005 1 gusting 3 14.4
2015-May-26 06:59 010 0 gusting 4 13.9
2015-May-26 06:49 360 1 gusting 5 13.3
2015-May-26 06:39 005 0 gusting 5 13.3
2015-May-26 06:29 360 0 gusting 5 12.8
2015-May-26 06:19 005 284 gusting 284 12.2
2015-May-26 05:59 360 1 gusting 5 11.1
2015-May-26 05:49 360 1 gusting 5 10.6
2015-May-26 05:39 005 0 gusting 6 10.0
2015-May-26 05:29 014 0 gusting 4 9.4
2015-May-26 05:19 009 9.4
2015-May-26 05:09 009 8.9
2015-May-26 04:59 009 9.4
2015-May-26 04:49 009 10.0
2015-May-26 04:39 009 10.6
2015-May-26 04:29 005 10.6
2015-May-26 04:19 005 10.6
2015-May-26 04:09 355 0 gusting 3 10.6
2015-May-26 03:59 355 0 gusting 2 10.6
2015-May-26 03:49 355 10.6
2015-May-26 03:39 355 1 gusting 4 10.0
2015-May-26 03:29 360 0 gusting 4 9.4
2015-May-26 03:19 360 0 gusting 3 9.4
2015-May-26 03:09 360 9.4
2015-May-26 02:59 360 8.9
2015-May-26 02:49 360 8.9
2015-May-26 02:39 360 9.4
2015-May-26 02:29 360 10.0
2015-May-26 02:19 360 10.0
2015-May-26 02:09 360 10.0
2015-May-26 01:59 360 10.0
2015-May-26 01:49 360 0 gusting 5 10.6
2015-May-26 01:39 360 2 gusting 6 10.6
2015-May-26 01:29 005 2 gusting 6 10.6
2015-May-26 01:19 360 2 gusting 4 10.6
2015-May-26 01:09 005 0 gusting 2 10.6
2015-May-26 00:59 005 0 gusting 3 11.1
2015-May-26 00:49 005 11.1
2015-May-26 00:39 005 2 gusting 6 11.7
2015-May-26 00:29 005 3 gusting 6 11.7
2015-May-26 00:19 005 3 gusting 6 12.2
2015-May-26 00:09 020 1 gusting 6 12.2
2015-May-25 23:59 005 0 gusting 5 12.2
2015-May-25 23:49 009 2 gusting 8 12.8
2015-May-25 23:39 360 3 gusting 8 12.8
2015-May-25 23:29 005 1 gusting 5 12.8
2015-May-25 23:19 005 0 gusting 5 13.3
2015-May-25 23:09 005 13.3
2015-May-25 22:59 005 0 gusting 4 13.9
2015-May-25 22:49 009 1 gusting 5 13.9
2015-May-25 22:39 005 0 gusting 5 14.4
2015-May-25 22:29 013 14.4
2015-May-25 22:19 011 0 gusting 4 14.4
2015-May-25 22:09 012 0 gusting 5 15.0
2015-May-25 21:59 016 1 gusting 7 15.0
2015-May-25 21:49 009 2 gusting 6 15.6
2015-May-25 21:29 005 1 gusting 7 15.6
2015-May-25 21:09 360 4 gusting 8 16.1
2015-May-25 20:59 011 2 gusting 7 16.1
2015-May-25 20:49 355 1 gusting 6 16.1
2015-May-25 20:39 011 2 gusting 8 16.1
2015-May-25 20:29 340 0 gusting 5 16.7
2015-May-25 20:19 326 0 gusting 6 16.7
2015-May-25 20:09 005 1 gusting 11 17.2
2015-May-25 19:59 355 2 gusting 6 17.2
2015-May-25 19:49 336 0 gusting 6 17.2
2015-May-25 19:39 327 1 gusting 6 17.8
2015-May-25 19:29 321 0 gusting 8 17.8
2015-May-25 19:19 355 2 gusting 6 18.3
2015-May-25 19:09 323 3 gusting 7 18.3
2015-May-25 18:59 324 1 gusting 11 18.9
2015-May-25 18:49 321 3 gusting 14 19.4
2015-May-25 18:39 010 2 gusting 8 20.6
2015-May-25 18:29 355 2 gusting 6 21.1
2015-May-25 18:19 005 2 gusting 6 21.7
2015-May-25 18:09 005 1 gusting 5 22.2
2015-May-25 17:59 351 2 gusting 6 22.2
2015-May-25 17:49 009 2 gusting 8 22.2
2015-May-25 17:39 355 0 gusting 6 21.7
2015-May-25 17:29 005 21.7
2015-May-25 17:19 345 0 gusting 5 21.7
2015-May-25 17:09 005 0 gusting 6 22.2
2015-May-25 16:59 033 0 gusting 6 22.2
2015-May-25 16:49 005 0 gusting 6 22.8
2015-May-25 16:39 019 21.7
2015-May-25 16:29 010 1 gusting 6 22.2
2015-May-25 16:19 332 22.2
2015-May-25 16:09 010 0 gusting 6 21.1
2015-May-25 15:59 063 0 gusting 4 21.7
2015-May-25 15:49 355 1 gusting 6 23.3
2015-May-25 15:29 360 0 gusting 6 23.9
2015-May-25 15:19 296 0 gusting 6 24.4
2015-May-25 15:09 349 0 gusting 6 22.8
2015-May-25 14:59 355 2 gusting 9 23.9
2015-May-25 14:49 335 2 gusting 6 22.8
2015-May-25 14:39 013 2 gusting 8 23.3
2015-May-25 14:29 331 0 gusting 6 23.3
2015-May-25 14:19 059 23.3
2015-May-25 14:09 009 2 gusting 7 22.8
2015-May-25 13:59 062 0 gusting 4 21.7
2015-May-25 13:49 060 2 gusting 6 21.7
2015-May-25 13:39 005 0 gusting 5 23.3
2015-May-25 13:29 355 0 gusting 5 22.2
2015-May-25 13:09 291 1 gusting 6 22.8
2015-May-25 12:59 360 0 gusting 6 20.6
2015-May-25 12:49 073 5 gusting 8 21.1
2015-May-25 12:39 005 22.2
2015-May-25 12:29 005 20.6
2015-May-25 12:19 339 2 gusting 7 21.1
2015-May-25 12:09 005 0 gusting 6 21.7
2015-May-25 11:59 355 0 gusting 7 21.1
2015-May-25 11:49 009 2 gusting 8 21.1
2015-May-25 11:39 360 2 gusting 6 21.7
2015-May-25 11:29 355 1 gusting 7 21.1
2015-May-25 11:19 055 20.0
2015-May-25 11:09 067 0 gusting 6 20.6
2015-May-25 10:59 017 1 gusting 6 20.0
2015-May-25 10:49 066 1 gusting 6 20.6
2015-May-25 10:39 088 19.4
2015-May-25 10:29 067 0 gusting 6 18.9
2015-May-25 10:19 059 18.3
2015-May-25 10:09 005 19.4
2015-May-25 09:59 067 18.3
2015-May-25 09:49 080 0 gusting 4 18.3
2015-May-25 09:39 068 1 gusting 4 17.8
2015-May-25 09:29 090 17.8
2015-May-25 09:19 085 17.2
2015-May-25 09:09 360 16.7
2015-May-25 08:59 360 16.1
2015-May-25 08:49 360 15.6
2015-May-25 08:39 360 15.6
2015-May-25 08:29 360 15.6
2015-May-25 08:19 360 15.0
2015-May-25 08:09 360 14.4
2015-May-25 07:49 360 13.3
2015-May-25 07:39 360 0 gusting 2 12.8
2015-May-25 07:29 360 12.8
2015-May-25 07:19 360 0 gusting 3 12.2
2015-May-25 07:09 360 12.2
2015-May-25 06:59 360 12.2
2015-May-25 06:49 360 12.8
2015-May-25 06:39 360 12.2
2015-May-25 06:29 360 11.7
2015-May-25 06:19 360 10.6
2015-May-25 06:09 360 10.0
2015-May-25 05:59 360 9.4
2015-May-25 05:49 360 9.4
2015-May-25 05:39 360 8.9
2015-May-25 05:29 360 8.9
2015-May-25 05:19 360 8.9
2015-May-25 05:09 360 8.9
2015-May-25 04:59 360 8.9
2015-May-25 04:49 360 8.9
2015-May-25 04:39 360 8.9
2015-May-25 04:29 360 8.9
2015-May-25 04:19 360 8.9
2015-May-25 04:09 360 8.9
2015-May-25 03:59 360 8.9
2015-May-25 03:49 360 8.9
2015-May-25 03:39 360 9.4
2015-May-25 03:29 360 9.4
2015-May-25 03:19 360 10.0
2015-May-25 03:09 360 10.0
2015-May-25 02:59 360 10.6
2015-May-25 02:49 360 10.0
2015-May-25 02:39 360 10.0
2015-May-25 02:29 360 10.0
2015-May-25 02:19 360 10.0
2015-May-25 02:09 360 9.4
2015-May-25 01:59 360 9.4
2015-May-25 01:49 360 10.0
2015-May-25 01:39 360 10.0
2015-May-25 01:29 360 10.0
2015-May-25 01:09 360 10.6
2015-May-25 00:59 360 11.1
2015-May-25 00:49 360 11.1
2015-May-25 00:39 360 11.1
2015-May-25 00:29 360 11.1
2015-May-25 00:19 360 1 gusting 4 11.1
2015-May-25 00:09 360 0 gusting 2 11.1
2015-May-24 23:59 360 0 gusting 3 11.7
2015-May-24 23:49 360 11.7
2015-May-24 23:39 360 11.7
2015-May-24 23:29 360 11.7
2015-May-24 23:19 360 0 gusting 4 12.2
2015-May-24 23:09 009 0 gusting 4 12.2
2015-May-24 22:59 005 12.2
2015-May-24 22:49 012 12.8
2015-May-24 22:39 015 12.8
2015-May-24 22:29 360 0 gusting 4 12.8
2015-May-24 22:19 005 1 gusting 5 12.8
2015-May-24 22:09 343 0 gusting 4 12.8
2015-May-24 21:59 360 12.8
2015-May-24 21:49 355 12.8
2015-May-24 21:39 005 0 gusting 4 12.8
2015-May-24 21:29 016 0 gusting 3 13.3
2015-May-24 21:19 021 13.3
2015-May-24 21:09 072 13.3
2015-May-24 20:59 070 0 gusting 5 13.9
2015-May-24 20:49 028 13.9
2015-May-24 20:39 066 13.9
2015-May-24 20:29 071 0 gusting 4 14.4
2015-May-24 20:19 088 0 gusting 6 14.4
2015-May-24 20:09 092 0 gusting 6 15.0
2015-May-24 19:59 078 0 gusting 5 15.0
2015-May-24 19:49 084 15.6
2015-May-24 19:39 090 15.6
2015-May-24 19:29 090 0 gusting 4 15.6
2015-May-24 19:19 097 0 gusting 6 15.6
2015-May-24 19:09 107 0 gusting 3 16.1
2015-May-24 18:59 118 0 gusting 4 16.1
2015-May-24 18:49 105 0 gusting 4 16.1
2015-May-24 18:39 094 0 gusting 6 16.1
2015-May-24 18:29 087 16.7
2015-May-24 18:19 088 17.2
2015-May-24 18:09 083 17.2
2015-May-24 17:59 083 17.8
2015-May-24 17:49 083 17.8
2015-May-24 17:40 083 17.8
2015-May-24 17:29 083 17.8
2015-May-24 17:19 083 17.8
2015-May-24 17:09 083 17.8